Time;durP1;ratioP1;P1;durP2;ratioP2;P2;SDS_P1;SDS_P2;PMS_P1;PMS_P2;Temp;Humidity;BMP_temperature;BMP_pressure;BME280_temperature;BME280_humidity;BME280_pressure;Samples;Min_cycle;Max_cycle;Signal;HPM_P1;HPM_P2
2022/04/16 00:02:07;;;;;;;17.90;15.00;;;;;;;5.22;100.00;102401.53;5113323;28;20196;-69
2022/04/16 00:04:33;;;;;;;16.07;14.43;;;;;;;5.19;100.00;102401.50;5113769;28;20192;-69
2022/04/16 00:07:00;;;;;;;14.83;13.53;;;;;;;5.13;100.00;102396.25;5114251;28;20206;-69
2022/04/16 00:09:26;;;;;;;14.43;13.13;;;;;;;5.10;100.00;102394.50;5112030;28;20179;-69
2022/04/16 00:11:53;;;;;;;15.87;14.37;;;;;;;5.04;100.00;102394.44;5113991;28;20183;-68
2022/04/16 00:14:19;;;;;;;15.23;13.73;;;;;;;5.02;100.00;102395.31;5113705;28;20245;-68
2022/04/16 00:16:46;;;;;;;15.37;13.87;;;;;;;5.00;100.00;102395.28;5113676;28;20208;-68
2022/04/16 00:19:12;;;;;;;16.87;15.17;;;;;;;4.99;100.00;102398.72;5112273;28;20211;-68
2022/04/16 00:21:39;;;;;;;15.10;13.57;;;;;;;4.97;100.00;102388.34;5113624;28;20195;-68
2022/04/16 00:24:07;;;;;;;16.30;14.83;;;;;;;4.94;100.00;102390.03;5113252;28;20195;-69
2022/04/16 00:26:40;;;;;;;14.97;13.53;;;;;;;4.90;100.00;102389.13;5113830;28;20211;-69
2022/04/16 00:29:08;;;;;;;21.70;16.37;;;;;;;4.92;100.00;102389.13;5093926;28;20248;-69
2022/04/16 00:31:36;;;;;;;15.27;13.97;;;;;;;4.86;100.00;102389.97;5113817;28;20711;-69
2022/04/16 00:34:03;;;;;;;16.27;14.77;;;;;;;4.80;100.00;102389.91;5113769;28;20542;-69
2022/04/16 00:36:29;;;;;;;17.77;14.83;;;;;;;4.84;100.00;102394.25;5111271;28;20281;-69
2022/04/16 00:38:56;;;;;;;16.27;14.53;;;;;;;4.76;100.00;102395.06;5112386;28;20672;-69
2022/04/16 00:41:23;;;;;;;16.37;14.67;;;;;;;4.77;100.00;102396.78;5113979;28;20594;-69
2022/04/16 00:43:52;;;;;;;15.90;14.27;;;;;;;4.74;100.00;102389.84;5113437;28;20302;-68
2022/04/16 00:46:19;;;;;;;16.23;14.60;;;;;;;4.70;100.00;102396.72;5116603;28;20220;-68
2022/04/16 00:48:46;;;;;;;14.87;13.53;;;;;;;4.67;100.00;102398.44;5117711;28;20215;-68
2022/04/16 00:51:14;;;;;;;15.77;14.13;;;;;;;4.66;100.00;102394.97;5105222;28;20195;-69
2022/04/16 00:53:41;;;;;;;15.63;14.13;;;;;;;4.66;100.00;102394.09;5115623;28;20191;-69
2022/04/16 00:56:10;;;;;;;15.27;13.77;;;;;;;4.63;100.00;102389.72;5116282;28;20214;-69
2022/04/16 00:58:41;;;;;;;17.87;13.90;;;;;;;4.65;100.00;102389.78;5117132;28;20211;-68
2022/04/16 01:01:08;;;;;;;15.97;14.47;;;;;;;4.63;100.00;102394.91;5117422;28;20191;-68
2022/04/16 01:03:35;;;;;;;15.90;14.40;;;;;;;4.61;100.00;102395.78;5117349;28;20665;-68
2022/04/16 01:06:02;;;;;;;15.93;14.33;;;;;;;4.61;100.00;102398.38;5107690;28;20267;-69
2022/04/16 01:08:29;;;;;;;20.10;16.07;;;;;;;4.60;100.00;102399.22;5116504;28;20184;-69
2022/04/16 01:10:55;;;;;;;17.37;15.80;;;;;;;4.65;100.00;102401.00;5096611;28;20181;-68
2022/04/16 01:13:22;;;;;;;20.03;18.00;;;;;;;4.61;100.00;102395.78;5096814;28;20648;-68
2022/04/16 01:15:48;;;;;;;23.83;16.50;;;;;;;4.62;100.00;102405.28;5112371;28;20243;-69
2022/04/16 01:18:16;;;;;;;19.20;17.10;;;;;;;4.59;100.00;102397.50;5116771;28;20247;-68
2022/04/16 01:20:44;;;;;;;17.00;15.27;;;;;;;4.54;100.00;102400.03;5116771;28;20243;-68
2022/04/16 01:23:10;;;;;;;17.90;16.00;;;;;;;4.52;100.00;102399.16;5117029;28;20201;-68
2022/04/16 01:25:37;;;;;;;17.47;15.73;;;;;;;4.49;100.00;102400.81;5115621;28;20210;-69
2022/04/16 01:28:04;;;;;;;17.13;15.53;;;;;;;4.49;100.00;102403.41;5116923;28;20187;-68
2022/04/16 01:30:31;;;;;;;16.67;14.93;;;;;;;4.43;100.00;102396.47;5115929;28;20186;-68
2022/04/16 01:32:58;;;;;;;17.17;15.40;;;;;;;4.46;100.00;102401.66;5116548;28;20194;-68
2022/04/16 01:35:24;;;;;;;17.47;15.73;;;;;;;4.45;100.00;102399.94;5115465;28;20201;-69
2022/04/16 01:37:51;;;;;;;16.93;15.27;;;;;;;4.39;100.00;102402.44;5115665;28;20671;-68
2022/04/16 01:40:20;;;;;;;19.93;17.87;;;;;;;4.46;100.00;102406.00;5115026;28;20186;-69
2022/04/16 01:42:46;;;;;;;22.50;19.37;;;;;;;4.50;100.00;102410.34;5116358;28;20185;-68
2022/04/16 01:45:18;;;;;;;24.77;19.60;;;;;;;4.48;100.00;102412.91;5116250;28;20207;-69
2022/04/16 01:47:45;;;;;;;26.17;19.87;;;;;;;4.43;100.00;102419.81;5116206;28;20205;-68
2022/04/16 01:50:12;;;;;;;22.57;17.80;;;;;;;4.46;100.00;102414.63;5116439;28;20186;-68
2022/04/16 01:52:41;;;;;;;19.03;17.03;;;;;;;4.40;100.00;102412.84;5116190;28;20187;-68
2022/04/16 01:55:08;;;;;;;21.47;18.30;;;;;;;4.36;100.00;102415.41;5115441;28;20205;-68
2022/04/16 01:57:36;;;;;;;23.50;18.47;;;;;;;4.35;100.00;102418.81;5113161;28;20193;-68
2022/04/16 02:00:06;;;;;;;22.30;17.23;;;;;;;4.31;100.00;102410.16;5115956;28;20211;-68
2022/04/16 02:02:35;;;;;;;24.40;17.77;;;;;;;4.35;100.00;102411.03;5115982;28;20186;-68
2022/04/16 02:05:02;;;;;;;23.13;17.70;;;;;;;4.33;100.00;102413.63;5114776;28;20187;-68
2022/04/16 02:07:28;;;;;;;18.57;16.03;;;;;;;4.32;100.00;102413.59;5115887;28;20182;-68
2022/04/16 02:09:54;;;;;;;19.23;16.20;;;;;;;4.35;100.00;102414.50;5110386;28;20243;-68
2022/04/16 02:12:21;;;;;;;21.73;17.97;;;;;;;4.27;100.00;102423.91;5095402;28;20194;-68
2022/04/16 02:14:47;;;;;;;29.63;20.57;;;;;;;4.28;100.00;102425.66;5109754;28;20190;-69
2022/04/16 02:17:14;;;;;;;24.53;19.63;;;;;;;4.30;100.00;102428.28;5115369;28;20192;-68
2022/04/16 02:19:41;;;;;;;24.27;19.87;;;;;;;4.29;100.00;102421.34;5112682;28;20704;-69
2022/04/16 02:22:08;;;;;;;19.90;17.80;;;;;;;4.27;100.00;102426.50;5095257;28;20179;-68
2022/04/16 02:24:34;;;;;;;18.07;16.17;;;;;;;4.24;100.00;102430.78;5095177;28;20186;-68
2022/04/16 02:27:01;;;;;;;19.80;15.77;;;;;;;4.19;100.00;102433.31;5112595;28;20210;-68
2022/04/16 02:29:27;;;;;;;17.03;15.33;;;;;;;4.12;100.00;102424.59;5115517;28;20171;-68
2022/04/16 02:31:54;;;;;;;18.03;16.17;;;;;;;4.16;100.00;102429.84;5114435;28;20186;-68
2022/04/16 02:34:21;;;;;;;23.17;18.13;;;;;;;4.20;100.00;102436.78;5105001;28;20197;-68
2022/04/16 02:36:48;;;;;;;25.13;18.53;;;;;;;4.12;100.00;102431.50;5110606;28;20271;-68
2022/04/16 02:39:15;;;;;;;23.33;16.80;;;;;;;4.11;100.00;102440.13;5115184;28;20209;-68
2022/04/16 02:41:42;;;;;;;21.50;16.90;;;;;;;4.10;100.00;102441.84;5115184;28;20187;-68
2022/04/16 02:47:05;;;;;;;24.57;17.83;;;;;;;4.08;100.00;102440.97;5115434;28;20660;-68
2022/04/16 02:47:13;;;;;;;20.07;17.43;;;;;;;4.04;100.00;102440.91;5114145;28;20613;-68
2022/04/16 02:49:40;;;;;;;22.00;17.97;;;;;;;4.01;100.00;102446.06;5115640;28;20169;-68
2022/04/16 02:52:07;;;;;;;21.50;18.13;;;;;;;3.98;100.00;102449.44;5114981;28;20235;-68
2022/04/16 02:54:34;;;;;;;17.53;15.70;;;;;;;3.95;100.00;102451.16;5115209;28;20198;-68
2022/04/16 02:57:01;;;;;;;22.93;19.33;;;;;;;3.94;100.00;102452.00;5113335;28;20218;-68
2022/04/16 02:59:27;;;;;;;20.57;18.40;;;;;;;3.91;100.00;102458.00;5114147;28;20214;-68
2022/04/16 03:01:54;;;;;;;20.43;17.37;;;;;;;3.87;100.00;102461.41;5114817;28;20178;-68
2022/04/16 03:04:22;;;;;;;21.30;17.60;;;;;;;3.88;100.00;102457.09;5114745;28;20186;-68
2022/04/16 03:06:48;;;;;;;22.70;18.03;;;;;;;3.80;100.00;102460.44;5113251;28;20209;-68
2022/04/16 03:09:15;;;;;;;26.73;19.77;;;;;;;3.81;100.00;102458.72;5115237;28;20190;-68
2022/04/16 03:11:41;;;;;;;21.60;18.77;;;;;;;3.83;100.00;102459.59;5115165;28;20185;-68
2022/04/16 03:19:38;;;;;;;31.23;21.27;;;;;;;3.86;100.00;102457.94;5114462;28;20659;-68
2022/04/16 03:22:04;;;;;;;31.20;21.83;;;;;;;3.95;100.00;102452.00;5113935;28;20589;-68
2022/04/16 03:24:31;;;;;;;31.27;23.03;;;;;;;4.01;100.00;102454.69;5114127;28;20251;-68
2022/04/16 03:26:57;;;;;;;36.53;22.10;;;;;;;4.06;100.00;102462.50;5112855;28;20213;-68
2022/04/16 03:29:24;;;;;;;33.47;22.87;;;;;;;4.13;100.00;102451.38;5114318;28;20235;-68
2022/04/16 03:31:50;;;;;;;25.73;21.63;;;;;;;4.12;100.00;102458.28;5114264;28;20235;-68
2022/04/16 03:34:16;;;;;;;32.03;22.13;;;;;;;4.21;100.00;102462.72;5114241;28;20182;-68
2022/04/16 03:36:43;;;;;;;32.23;21.93;;;;;;;4.23;100.00;102466.22;5111965;28;20225;-68
2022/04/16 03:39:10;;;;;;;28.73;22.37;;;;;;;4.24;100.00;102467.09;5113753;28;20211;-68
2022/04/16 03:41:38;;;;;;;28.17;20.70;;;;;;;4.21;100.00;102467.03;5114798;28;20664;-68
2022/04/16 03:44:06;;;;;;;30.33;22.53;;;;;;;4.20;100.00;102475.66;5114350;28;20254;-68
2022/04/16 03:46:32;;;;;;;30.97;22.93;;;;;;;4.17;100.00;102473.03;5112680;28;20621;-69
2022/04/16 03:49:02;;;;;;;38.53;25.00;;;;;;;4.13;100.00;102470.38;5113334;28;20224;-69
2022/04/16 03:51:28;;;;;;;29.03;22.67;;;;;;;4.12;100.00;102473.84;5113289;28;20191;-69
2022/04/16 03:53:55;;;;;;;34.27;22.83;;;;;;;4.18;100.00;102477.38;5113952;28;20228;-68
2022/04/16 04:01:51;;;;;;;35.10;24.27;;;;;;;4.32;100.00;102483.63;5113835;28;20185;-68
2022/04/16 04:04:17;;;;;;;36.47;23.07;;;;;;;4.38;100.00;102483.69;5111327;28;20636;-68
2022/04/16 04:06:44;;;;;;;36.67;22.97;;;;;;;4.46;100.00;102488.97;5108864;28;20213;-69
2022/04/16 04:09:10;;;;;;;33.03;23.10;;;;;;;4.45;100.00;102488.09;5113766;28;20189;-68
2022/04/16 04:11:37;;;;;;;28.97;22.47;;;;;;;4.51;100.00;102488.19;5113157;28;20659;-68
2022/04/16 04:14:03;;;;;;;31.50;23.67;;;;;;;4.57;100.00;102490.88;5114005;28;20248;-68
2022/04/16 04:16:30;;;;;;;35.03;25.63;;;;;;;4.58;100.00;102494.31;5112365;28;20213;-68
2022/04/16 04:18:56;;;;;;;37.77;25.10;;;;;;;4.70;100.00;102497.03;5113805;28;20201;-68
2022/04/16 04:21:23;;;;;;;36.90;25.60;;;;;;;4.77;100.00;102493.66;5117243;28;20251;-69
2022/04/16 04:23:49;;;;;;;38.47;24.17;;;;;;;4.83;100.00;102496.31;5116718;28;20304;-69
2022/04/16 04:26:16;;;;;;;40.97;26.87;;;;;;;5.02;100.00;102497.41;5116865;28;20271;-69
2022/04/16 04:28:42;;;;;;;38.53;25.63;;;;;;;4.96;100.00;102505.13;5118113;28;20580;-69
2022/04/16 04:31:10;;;;;;;40.70;25.77;;;;;;;5.02;100.00;102504.31;5102655;28;20196;-69
2022/04/16 04:33:37;;;;;;;40.93;25.83;;;;;;;5.06;100.00;102509.53;5097308;28;20189;-69
2022/04/16 04:36:03;;;;;;;47.17;27.23;;;;;;;5.15;100.00;102506.19;5106159;28;20215;-69
2022/04/16 04:38:30;;;;;;;45.57;27.53;;;;;;;5.16;100.00;102511.41;5117871;28;20236;-68
2022/04/16 04:40:56;;;;;;;40.87;25.73;;;;;;;5.16;100.00;102515.72;5117887;28;20230;-68
2022/04/16 04:43:23;;;;;;;40.00;26.63;;;;;;;5.26;100.00;102520.13;5116803;28;20245;-68
2022/04/16 04:45:49;;;;;;;44.20;26.93;;;;;;;5.25;100.00;102523.59;5116573;28;20212;-68
2022/04/16 04:48:16;;;;;;;40.43;25.63;;;;;;;5.22;100.00;102529.63;5117993;28;20590;-68
2022/04/16 04:50:42;;;;;;;43.10;25.67;;;;;;;5.16;100.00;102533.91;5117362;28;20654;-68
2022/04/16 04:53:08;;;;;;;34.63;24.20;;;;;;;5.10;100.00;102542.47;5117587;28;20654;-68
2022/04/16 04:55:35;;;;;;;43.13;25.40;;;;;;;5.11;100.00;102539.03;5113947;28;20269;-68
2022/04/16 04:58:01;;;;;;;37.37;24.23;;;;;;;5.11;100.00;102540.75;5096843;28;20183;-68
2022/04/16 05:00:28;;;;;;;40.27;26.37;;;;;;;5.15;100.00;102553.81;5102729;28;20211;-68
2022/04/16 05:02:54;;;;;;;38.40;27.00;;;;;;;5.16;100.00;102555.53;5116045;28;20226;-68
2022/04/16 05:05:21;;;;;;;49.50;28.30;;;;;;;5.21;100.00;102552.97;5116002;28;20220;-68
2022/04/16 05:07:47;;;;;;;44.23;27.63;;;;;;;5.29;100.00;102558.25;5114162;28;20428;-69
2022/04/16 05:10:14;;;;;;;44.23;26.60;;;;;;;5.37;100.00;102551.41;5115662;28;20234;-69
2022/04/16 05:12:40;;;;;;;40.00;27.83;;;;;;;5.48;100.00;102555.84;5116605;28;20727;-68
2022/04/16 05:15:07;;;;;;;46.27;28.23;;;;;;;5.60;100.00;102564.63;5098214;28;20287;-69
2022/04/16 05:17:37;;;;;;;50.33;27.00;;;;;;;5.65;100.00;102562.94;5115528;28;20184;-69
2022/04/16 05:20:07;;;;;;;38.70;28.03;;;;;;;5.72;100.00;102556.94;5116404;28;20237;-69
2022/04/16 05:22:34;;;;;;;39.13;26.63;;;;;;;5.76;100.00;102561.28;5116568;28;20192;-68
2022/04/16 05:25:00;;;;;;;50.50;28.87;;;;;;;5.80;100.00;102561.34;5115672;28;20317;-69
2022/04/16 05:27:30;;;;;;;38.60;27.00;;;;;;;5.86;100.00;102562.22;5114914;28;20196;-69
2022/04/16 05:30:04;;;;;;;41.47;26.73;;;;;;;5.92;100.00;102567.50;5115565;28;20241;-69
2022/04/16 05:32:35;;;;;;;44.00;28.83;;;;;;;5.94;100.00;102573.63;5116887;28;20188;-69
2022/04/16 05:35:03;;;;;;;44.30;26.43;;;;;;;6.06;100.00;102576.28;5116066;28;20189;-69
2022/04/16 05:37:30;;;;;;;39.33;26.40;;;;;;;6.10;100.00;102572.84;5113512;28;20666;-69
2022/04/16 05:39:57;;;;;;;38.60;26.17;;;;;;;6.09;100.00;102567.66;5115759;28;20204;-68
2022/04/16 05:42:23;;;;;;;48.07;27.10;;;;;;;6.15;100.00;102573.78;5116919;28;20218;-68
2022/04/16 05:44:50;;;;;;;46.63;28.20;;;;;;;6.15;100.00;102575.50;5115448;28;20196;-69
2022/04/16 05:47:16;;;;;;;41.47;27.23;;;;;;;6.25;100.00;102580.75;5114697;28;20200;-68
2022/04/16 05:49:43;;;;;;;47.23;27.47;;;;;;;6.30;100.00;102584.28;5113016;28;20174;-69
2022/04/16 05:52:09;;;;;;;42.53;26.63;;;;;;;6.32;100.00;102582.53;5115044;28;20189;-69
2022/04/16 05:54:36;;;;;;;45.10;26.90;;;;;;;6.48;100.00;102585.22;5115121;28;20189;-69
2022/04/16 05:57:03;;;;;;;44.57;25.30;;;;;;;6.49;100.00;102586.97;5115893;28;20205;-69
2022/04/16 05:59:30;;;;;;;39.80;25.50;;;;;;;6.51;100.00;102590.47;5115363;28;20258;-69
2022/04/16 06:01:57;;;;;;;41.27;24.80;;;;;;;6.49;100.00;102589.56;5115078;28;20238;-69
2022/04/16 06:04:23;;;;;;;46.93;25.40;;;;;;;6.60;100.00;102598.31;5116522;28;20189;-68
2022/04/16 06:06:50;;;;;;;39.73;25.37;;;;;;;6.69;100.00;102595.75;5116157;28;20567;-69
2022/04/16 06:09:16;;;;;;;40.23;26.47;;;;;;;6.68;100.00;102604.44;5113973;28;20594;-70
2022/04/16 06:11:43;;;;;;;44.53;26.50;;;;;;;6.83;100.00;102608.84;5112143;28;20193;-69
2022/04/16 06:14:09;;;;;;;40.87;25.43;;;;;;;6.96;100.00;102607.16;5116071;28;20193;-68
2022/04/16 06:16:36;;;;;;;40.10;24.30;;;;;;;6.99;100.00;102609.78;5113244;28;20205;-68
2022/04/16 06:19:02;;;;;;;39.97;24.80;;;;;;;7.09;100.00;102615.03;5114726;28;20551;-69
2022/04/16 06:21:29;;;;;;;35.60;24.47;;;;;;;7.08;100.00;102612.44;5114594;28;20188;-69
2022/04/16 06:23:57;;;;;;;39.50;24.97;;;;;;;7.13;100.00;102619.38;5110358;28;20194;-70
2022/04/16 06:26:26;;;;;;;33.97;23.97;;;;;;;7.39;100.00;102616.00;5107007;28;20258;-69
2022/04/16 06:28:52;;;;;;;37.60;23.43;;;;;;;7.42;100.00;102623.81;5115511;28;20584;-69
2022/04/16 06:31:19;;;;;;;37.30;24.07;;;;;;;7.45;100.00;102611.66;5115698;28;20177;-69
2022/04/16 06:33:45;;;;;;;41.80;24.10;;;;;;;7.53;100.00;102623.84;5112379;28;20208;-70
2022/04/16 06:36:12;;;;;;;35.80;23.37;;;;;;;7.65;100.00;102614.31;5114752;28;20262;-69
2022/04/16 06:38:38;;;;;;;35.53;21.93;;;;;;;7.71;100.00;102618.66;5115548;28;20199;-69
2022/04/16 06:41:05;;;;;;;32.60;23.37;;;;;;;7.65;100.00;102622.13;5115113;28;20700;-68
2022/04/16 06:43:31;;;;;;;32.40;22.50;;;;;;;7.63;100.00;102630.81;5103564;28;20200;-70
2022/04/16 06:46:00;;;;;;;34.97;23.17;;;;;;;7.72;100.00;102621.28;5076578;28;20618;-68
2022/04/16 06:48:27;;;;;;;33.73;21.87;;;;;;;7.88;100.00;102627.38;5076308;28;20712;-68
2022/04/16 06:50:54;;;;;;;33.00;22.30;;;;;;;7.88;100.00;102631.72;5094873;28;20714;-68
2022/04/16 06:53:20;;;;;;;43.60;21.53;;;;;;;7.87;100.00;102628.25;5099717;28;20200;-69
2022/04/16 06:55:46;;;;;;;25.60;20.20;;;;;;;7.95;100.00;102633.47;5114947;28;20198;-69
2022/04/16 06:58:13;;;;;;;30.63;21.27;;;;;;;8.00;100.00;102627.38;5114895;28;20656;-68
2022/04/16 07:00:39;;;;;;;25.03;19.90;;;;;;;7.98;100.00;102629.09;5114773;28;20259;-68
2022/04/16 07:03:07;;;;;;;27.20;19.33;;;;;;;8.03;100.00;102636.06;5114789;28;20196;-69
2022/04/16 07:05:34;;;;;;;28.60;19.33;;;;;;;7.94;100.00;102631.72;5114898;28;20579;-68
2022/04/16 07:08:00;;;;;;;28.37;19.77;;;;;;;8.18;100.00;102630.84;5102249;28;20197;-69
2022/04/16 07:10:27;;;;;;;24.73;19.43;;;;;;;8.21;100.00;102636.03;5094854;28;20184;-68
2022/04/16 07:12:53;;;;;;;33.23;18.27;;;;;;;8.19;100.00;102629.97;5094582;28;20707;-68
2022/04/16 07:15:20;;;;;;;25.13;18.70;;;;;;;8.26;100.00;102626.47;5094073;28;20296;-69
2022/04/16 07:17:46;;;;;;;22.10;16.73;;;;;;;8.52;100.00;102631.72;5094462;28;20190;-68
2022/04/16 07:20:13;;;;;;;21.60;17.83;;;;;;;8.78;100.00;102629.88;5093998;28;20235;-69
2022/04/16 07:22:39;;;;;;;23.03;18.30;;;;;;;8.92;100.00;102624.63;5098516;28;20180;-69
2022/04/16 07:25:06;;;;;;;22.30;17.93;;;;;;;9.10;99.88;102627.16;5106246;28;20196;-69
2022/04/16 07:27:32;;;;;;;23.20;17.87;;;;;;;9.24;99.47;102628.84;5107687;28;20195;-70
2022/04/16 07:29:59;;;;;;;18.03;16.20;;;;;;;9.35;96.26;102629.66;5112481;28;20658;-69
2022/04/16 07:32:27;;;;;;;19.40;16.90;;;;;;;9.40;96.58;102630.50;5114313;28;20188;-69
2022/04/16 07:34:53;;;;;;;32.67;15.63;;;;;;;9.57;96.77;102623.44;5113582;28;20254;-69
2022/04/16 07:37:20;;;;;;;31.07;16.33;;;;;;;9.43;95.05;102625.28;5102470;28;20242;-69
2022/04/16 07:39:46;;;;;;;17.87;16.00;;;;;;;9.62;94.27;102620.78;5109800;28;20766;-69
2022/04/16 07:42:17;;;;;;;25.40;16.17;;;;;;;9.67;94.19;102618.13;5112807;28;20250;-69
2022/04/16 07:44:44;;;;;;;19.43;15.73;;;;;;;9.67;93.56;102624.25;5114577;28;20245;-69
2022/04/16 07:47:10;;;;;;;19.40;16.17;;;;;;;9.82;91.95;102618.03;5110910;28;20593;-69
2022/04/16 07:49:37;;;;;;;18.47;15.23;;;;;;;9.95;91.82;102627.53;5113947;28;20655;-69
2022/04/16 07:52:03;;;;;;;21.27;16.87;;;;;;;9.99;92.94;102631.84;5113424;28;20253;-69
2022/04/16 07:54:30;;;;;;;18.20;16.03;;;;;;;10.03;91.54;102625.72;5113113;28;20181;-69
2022/04/16 07:56:56;;;;;;;19.10;16.63;;;;;;;10.12;90.49;102617.75;5113147;28;20819;-69
2022/04/16 07:59:23;;;;;;;17.57;15.73;;;;;;;10.37;90.71;102626.31;5114237;28;20189;-69
2022/04/16 08:01:49;;;;;;;20.47;17.27;;;;;;;10.38;89.56;102619.31;5095623;28;20190;-69
2022/04/16 08:04:16;;;;;;;18.07;16.30;;;;;;;10.49;89.80;102627.91;5111383;28;20279;-70
2022/04/16 08:06:42;;;;;;;18.37;15.97;;;;;;;10.75;90.54;102630.28;5113653;28;20205;-69
2022/04/16 08:09:08;;;;;;;22.23;17.33;;;;;;;10.60;89.20;102633.94;5113679;28;20184;-69
2022/04/16 08:11:35;;;;;;;18.43;16.50;;;;;;;10.72;87.01;102640.81;5113358;28;20223;-70
2022/04/16 08:14:02;;;;;;;19.23;17.20;;;;;;;10.83;84.96;102645.91;5095915;28;20247;-69
2022/04/16 08:16:28;;;;;;;21.40;16.60;;;;;;;10.82;85.75;102639.78;5099867;28;20210;-69
2022/04/16 08:18:55;;;;;;;16.40;14.80;;;;;;;10.87;84.13;102645.88;5112228;28;20199;-69
2022/04/16 08:21:22;;;;;;;20.23;13.80;;;;;;;10.80;84.79;102648.56;5111010;28;20201;-69
2022/04/16 08:23:56;;;;;;;15.20;13.67;;;;;;;10.56;82.79;102642.69;5113796;28;20185;-69
2022/04/16 08:26:23;;;;;;;17.63;15.07;;;;;;;10.68;84.05;102646.94;5111684;28;20204;-70
2022/04/16 08:28:50;;;;;;;15.33;13.53;;;;;;;10.84;84.03;102642.41;5110096;28;20189;-70
2022/04/16 08:31:17;;;;;;;14.13;12.40;;;;;;;10.95;81.27;102649.25;5093740;28;20174;-69
2022/04/16 08:33:43;;;;;;;13.53;12.17;;;;;;;10.91;79.15;102649.28;5095853;28;20194;-69
2022/04/16 08:36:10;;;;;;;12.83;11.90;;;;;;;11.05;80.71;102655.25;5113432;28;20217;-69
2022/04/16 08:38:36;;;;;;;15.97;14.37;;;;;;;11.06;81.13;102643.88;5113453;28;20181;-69
2022/04/16 08:41:04;;;;;;;18.63;13.87;;;;;;;11.18;82.94;102646.34;5113377;28;20254;-69
2022/04/16 08:43:32;;;;;;;15.17;13.80;;;;;;;11.27;82.42;102646.22;5111736;28;20193;-69
2022/04/16 08:46:00;;;;;;;13.97;12.73;;;;;;;11.36;80.33;102650.50;5113845;28;20262;-69
2022/04/16 08:48:27;;;;;;;14.83;13.33;;;;;;;11.66;78.32;102648.34;5113377;28;20211;-69
2022/04/16 08:50:54;;;;;;;14.23;13.03;;;;;;;11.94;80.39;102647.06;5113037;28;20182;-70
2022/04/16 08:53:21;;;;;;;14.60;13.33;;;;;;;12.27;76.88;102642.09;5113619;28;20651;-69
2022/04/16 08:55:47;;;;;;;12.97;11.87;;;;;;;12.58;77.45;102643.31;5110212;28;20224;-70
2022/04/16 08:58:13;;;;;;;14.50;13.10;;;;;;;12.56;76.17;102654.72;5106824;28;20194;-71
2022/04/16 09:00:40;;;;;;;13.67;12.60;;;;;;;12.73;75.96;102652.66;5109249;28;20201;-69
2022/04/16 09:03:09;;;;;;;14.33;13.13;;;;;;;12.52;72.37;102658.31;5111793;28;20656;-69
2022/04/16 09:05:35;;;;;;;12.40;11.13;;;;;;;12.57;73.51;102659.06;5100713;28;20243;-70
2022/04/16 09:08:04;;;;;;;12.57;11.73;;;;;;;12.49;71.64;102663.59;5103609;28;20185;-70
2022/04/16 09:10:32;;;;;;;13.37;12.17;;;;;;;12.20;71.54;102657.09;5116733;28;20727;-69
2022/04/16 09:13:01;;;;;;;12.37;11.47;;;;;;;11.95;72.11;102663.66;5117145;28;20199;-70
2022/04/16 09:15:28;;;;;;;13.50;12.37;;;;;;;11.67;72.72;102660.56;5110683;28;20226;-70
2022/04/16 09:18:03;;;;;;;12.97;11.87;;;;;;;11.70;72.91;102655.25;5115486;28;20187;-69
2022/04/16 09:20:32;;;;;;;11.30;10.53;;;;;;;11.78;72.06;102664.72;5117167;28;20196;-69
2022/04/16 09:22:58;;;;;;;14.47;13.33;;;;;;;11.82;71.83;102661.22;5096645;28;20182;-69
2022/04/16 09:25:29;;;;;;;14.47;13.27;;;;;;;11.54;71.93;102667.72;5101937;28;20217;-69
2022/04/16 09:27:55;;;;;;;12.93;11.90;;;;;;;11.43;71.83;102661.75;5116950;28;20173;-69
2022/04/16 09:30:31;;;;;;;10.47;9.77;;;;;;;11.70;71.88;102663.13;5114676;28;20547;-69
2022/04/16 09:33:00;;;;;;;11.90;11.23;;;;;;;11.88;72.69;102655.00;5102209;28;20206;-69
2022/04/16 09:35:31;;;;;;;11.93;11.13;;;;;;;11.88;72.12;102662.91;5116443;28;20213;-69
2022/04/16 09:38:14;;;;;;;12.17;11.37;;;;;;;11.69;72.40;102662.25;5116323;28;20242;-69
2022/04/16 09:40:46;;;;;;;13.83;10.93;;;;;;;11.92;71.66;102669.81;5116302;28;20234;-70
2022/04/16 09:43:13;;;;;;;10.73;10.13;;;;;;;12.06;70.10;102669.59;5115635;28;20254;-69
2022/04/16 09:45:40;;;;;;;11.17;10.43;;;;;;;12.36;69.58;102663.84;5114989;28;20213;-70
2022/04/16 09:48:12;;;;;;;10.33;9.63;;;;;;;12.39;69.07;102661.16;5115837;28;20196;-70
2022/04/16 09:50:41;;;;;;;11.10;10.37;;;;;;;12.25;68.45;102678.06;5115912;28;20187;-70
2022/04/16 09:53:08;;;;;;;11.63;11.00;;;;;;;12.05;68.85;102675.75;5114274;28;20547;-71
2022/04/16 09:55:36;;;;;;;11.87;10.97;;;;;;;11.99;69.20;102673.22;5114920;28;20213;-70
2022/04/16 09:58:06;;;;;;;12.00;10.87;;;;;;;12.12;69.92;102672.13;5116011;28;20194;-69
2022/04/16 10:00:35;;;;;;;12.37;11.20;;;;;;;12.35;70.64;102664.72;5116546;28;20229;-69
2022/04/16 10:03:20;;;;;;;12.00;11.23;;;;;;;12.39;69.63;102669.03;5116033;28;20176;-70
2022/04/16 10:05:47;;;;;;;11.30;10.47;;;;;;;12.61;69.22;102672.16;5115008;28;20217;-69
2022/04/16 10:08:14;;;;;;;11.23;10.50;;;;;;;12.70;67.63;102667.59;5115982;28;20204;-70
2022/04/16 10:10:46;;;;;;;11.27;10.47;;;;;;;12.79;66.67;102665.69;5086364;28;20239;-70
2022/04/16 10:13:15;;;;;;;10.67;9.87;;;;;;;12.93;67.67;102660.16;5116389;28;20615;-69
2022/04/16 10:16:19;;;;;;;12.00;11.27;;;;;;;13.16;66.83;102657.94;5115879;28;20205;-70
2022/04/16 10:18:45;;;;;;;10.90;10.13;;;;;;;13.34;67.01;102659.31;5114952;28;20192;-70
2022/04/16 10:21:16;;;;;;;11.50;10.67;;;;;;;13.43;65.77;102653.88;5113031;28;20739;-70
2022/04/16 10:23:43;;;;;;;11.33;10.47;;;;;;;13.54;65.31;102661.53;5116161;28;20178;-70
2022/04/16 10:26:15;;;;;;;12.13;11.27;;;;;;;13.26;65.00;102655.13;5115626;28;20694;-69
2022/04/16 10:29:03;;;;;;;10.17;9.47;;;;;;;13.31;64.24;102653.28;5116029;28;20222;-70
2022/04/16 10:31:32;;;;;;;11.27;10.27;;;;;;;13.34;62.02;102654.06;5110992;28;20185;-69
2022/04/16 10:34:04;;;;;;;10.07;9.57;;;;;;;13.34;63.38;102648.78;5114761;28;20550;-70
2022/04/16 10:36:54;;;;;;;10.23;9.53;;;;;;;13.49;63.55;102647.59;5095991;28;20214;-70
2022/04/16 10:39:27;;;;;;;11.40;10.70;;;;;;;13.50;63.97;102649.31;5115575;28;20185;-69
2022/04/16 10:41:55;;;;;;;10.63;9.97;;;;;;;13.54;63.14;102647.50;5114886;28;20242;-70
2022/04/16 10:44:23;;;;;;;10.40;9.43;;;;;;;13.76;61.52;102646.09;5114684;28;20220;-70
2022/04/16 10:46:52;;;;;;;11.80;10.90;;;;;;;13.71;62.02;102643.56;5115055;28;20755;-70
2022/04/16 10:49:20;;;;;;;11.87;10.77;;;;;;;13.87;62.25;102636.19;5114379;28;20185;-70
2022/04/16 10:51:47;;;;;;;11.90;11.27;;;;;;;13.88;60.02;102637.91;5114238;28;20215;-70
2022/04/16 10:54:24;;;;;;;11.10;10.47;;;;;;;13.82;60.71;102642.47;5114820;28;20196;-70
2022/04/16 10:56:54;;;;;;;10.63;10.13;;;;;;;13.74;60.16;102640.88;5114924;28;20258;-70
2022/04/16 10:59:42;;;;;;;10.93;10.00;;;;;;;14.17;61.49;102641.59;5113374;28;20272;-70
2022/04/16 11:02:34;;;;;;;9.67;9.27;;;;;;;14.42;60.14;102652.34;5114323;28;20197;-70
2022/04/16 11:05:06;;;;;;;8.73;8.23;;;;;;;14.49;58.00;102644.28;5114893;28;20244;-70
2022/04/16 11:07:35;;;;;;;8.30;7.93;;;;;;;14.52;54.94;102643.34;5115204;28;20197;-70
2022/04/16 11:10:03;;;;;;;8.93;8.40;;;;;;;14.52;54.37;102644.22;5114621;28;20223;-70
2022/04/16 11:12:30;;;;;;;8.53;8.13;;;;;;;14.57;56.54;102644.06;5109650;28;20184;-73
2022/04/16 11:14:56;;;;;;;7.23;7.03;;;;;;;14.56;55.11;102642.34;5094175;28;20185;-69
2022/04/16 11:17:24;;;;;;;9.53;9.03;;;;;;;14.46;55.68;102640.88;5094355;28;20185;-69
2022/04/16 11:20:00;;;;;;;8.53;8.13;;;;;;;13.96;54.85;102651.75;5107732;28;20689;-72
2022/04/16 11:22:27;;;;;;;14.70;7.80;;;;;;;13.33;55.40;102648.84;5108350;28;20208;-69
2022/04/16 11:24:55;;;;;;;8.57;8.37;;;;;;;13.24;53.93;102649.91;5104305;28;20239;-70